createdAt,value
2023-05-16T00:07:49.132Z,2.42
2023-05-16T00:17:52.415Z,2.83
2023-05-16T00:27:54.382Z,2.80
2023-05-16T00:37:57.719Z,2.42
2023-05-16T00:47:59.736Z,2.92
2023-05-16T00:58:03.885Z,3.08
2023-05-16T01:08:05.794Z,3.40
2023-05-16T01:18:15.636Z,3.33
2023-05-16T01:28:20.141Z,3.50
2023-05-16T01:38:26.646Z,3.90
2023-05-16T01:48:36.376Z,4.40
2023-05-16T01:58:39.313Z,3.60
2023-05-16T02:08:42.693Z,3.30
2023-05-16T02:18:44.650Z,3.63
2023-05-16T02:28:47.970Z,3.60
2023-05-16T02:38:49.868Z,3.72
2023-05-16T02:48:53.856Z,3.28
2023-05-16T02:58:55.853Z,2.88
2023-05-16T03:08:59.123Z,3.67
2023-05-16T03:19:01.055Z,4.07
2023-05-16T03:29:04.450Z,3.70
2023-05-16T03:39:06.431Z,4.38
2023-05-16T03:49:09.729Z,4.53
2023-05-16T03:59:11.650Z,3.42
2023-05-16T04:09:14.963Z,3.25
2023-05-16T04:19:16.934Z,2.88
2023-05-16T04:29:20.243Z,2.88
2023-05-16T04:39:22.315Z,4.22
2023-05-16T04:49:25.758Z,3.38
2023-05-16T04:59:27.725Z,3.67
2023-05-16T05:09:31.007Z,3.40
2023-05-16T05:19:32.999Z,3.55
2023-05-16T05:29:36.314Z,4.13
2023-05-16T05:39:38.337Z,4.75
2023-05-16T05:49:41.743Z,3.20
2023-05-16T05:59:43.669Z,5.13
2023-05-16T06:09:49.355Z,3.78
2023-05-16T06:19:51.303Z,3.17
2023-05-16T06:29:54.872Z,2.65
2023-05-16T06:39:56.841Z,4.35
2023-05-16T06:50:00.227Z,3.40
2023-05-16T07:00:02.215Z,2.63
2023-05-16T07:10:06.467Z,3.05
2023-05-16T07:20:09.096Z,3.17
2023-05-16T07:30:14.146Z,3.28
2023-05-16T07:40:16.225Z,3.40
2023-05-16T07:50:19.646Z,2.72
2023-05-16T08:00:22.032Z,2.63
2023-05-16T08:10:25.357Z,2.33
2023-05-16T08:20:27.575Z,2.55
2023-05-16T08:30:30.959Z,2.83
2023-05-16T08:40:33.145Z,2.28
2023-05-16T08:50:36.661Z,2.60
2023-05-16T09:00:41.932Z,2.10
2023-05-16T09:10:45.378Z,2.15
2023-05-16T09:20:48.700Z,2.22
2023-05-16T09:30:53.050Z,2.53
2023-05-16T09:40:55.589Z,2.83
2023-05-16T09:51:03.404Z,2.60
2023-05-16T10:01:05.994Z,2.20
2023-05-16T10:11:10.963Z,1.45
2023-05-16T10:21:15.835Z,1.55
2023-05-16T10:31:19.567Z,1.98
2023-05-16T10:41:21.911Z,2.38
2023-05-16T10:51:38.863Z,1.80
2023-05-16T11:01:41.124Z,1.80
2023-05-16T11:11:48.713Z,1.85
2023-05-16T11:22:24.019Z,2.50
2023-05-16T11:32:27.637Z,2.50
2023-05-16T11:42:30.770Z,1.63
2023-05-16T11:52:34.229Z,1.45
2023-05-16T12:02:36.468Z,1.85
2023-05-16T12:12:42.066Z,2.88
2023-05-16T12:22:45.402Z,2.70
2023-05-16T12:32:56.495Z,1.85
2023-05-16T12:42:58.562Z,1.70
2023-05-16T12:53:01.959Z,2.17
2023-05-16T13:03:04.698Z,2.50
2023-05-16T13:13:08.157Z,1.77
2023-05-16T13:23:10.154Z,1.48
2023-05-16T13:33:13.593Z,1.63
2023-05-16T13:43:15.671Z,1.67
2023-05-16T13:53:19.022Z,2.38
2023-05-16T14:03:23.988Z,1.80
2023-05-16T14:13:27.508Z,2.40
2023-05-16T14:23:29.498Z,2.20
2023-05-16T14:33:32.899Z,2.05
2023-05-16T14:43:34.922Z,2.83
2023-05-16T14:53:38.355Z,2.60
2023-05-16T15:13:46.622Z,2.83
2023-05-16T15:23:48.622Z,3.13
2023-05-16T15:33:51.981Z,3.25
2023-05-16T15:43:54.018Z,3.95
2023-05-16T15:53:57.387Z,3.80
2023-05-16T16:03:59.547Z,4.63
2023-05-16T16:14:03.042Z,5.22
2023-05-16T16:24:05.778Z,4.78
2023-05-16T16:34:09.154Z,4.63
2023-05-16T16:44:11.167Z,6.05
2023-05-16T16:54:14.527Z,6.78
2023-05-16T17:04:16.552Z,5.82
2023-05-16T17:14:22.030Z,6.60
2023-05-16T17:24:24.005Z,6.75
2023-05-16T17:34:27.370Z,6.93
2023-05-16T17:44:29.325Z,5.72
2023-05-16T17:54:32.811Z,5.82
2023-05-16T18:04:34.834Z,6.63
2023-05-16T18:14:38.192Z,6.57
2023-05-16T18:35:44.498Z,5.53
2023-05-16T18:45:46.526Z,6.97
2023-05-16T18:55:49.906Z,6.32
2023-05-16T19:06:02.224Z,6.82
2023-05-16T19:16:05.766Z,5.47
2023-05-16T19:26:07.771Z,6.00
2023-05-16T19:36:11.117Z,9.70
2023-05-16T19:46:13.092Z,5.93
2023-05-16T19:56:16.500Z,6.40
2023-05-16T20:06:18.505Z,5.72
2023-05-16T20:16:21.890Z,10.38
2023-05-16T20:26:23.841Z,6.18
2023-05-16T20:36:27.217Z,6.90
2023-05-16T20:46:29.243Z,5.68
2023-05-16T20:56:32.602Z,4.93
2023-05-16T21:06:34.676Z,5.25
2023-05-16T21:16:38.106Z,5.78
2023-05-16T21:26:40.075Z,5.80
2023-05-16T21:36:43.405Z,6.25
2023-05-16T21:46:45.470Z,5.88
2023-05-16T21:56:48.796Z,6.93
2023-05-16T22:06:52.433Z,4.82
2023-05-16T22:16:55.752Z,5.65
2023-05-16T22:26:57.719Z,5.80
2023-05-16T22:37:01.173Z,6.20
2023-05-16T22:47:05.054Z,6.20
2023-05-16T22:57:08.412Z,5.53
2023-05-16T23:07:10.377Z,6.90
2023-05-16T23:17:13.843Z,6.25
2023-05-16T23:27:15.826Z,5.78
2023-05-16T23:37:19.173Z,6.75
2023-05-16T23:47:21.129Z,6.25
2023-05-16T23:57:24.494Z,5.78
